createdAt,value
2018-09-01T00:02:26.944Z,7.10
2018-09-01T00:04:55.602Z,6.37
2018-09-01T00:07:24.321Z,5.90
2018-09-01T00:09:52.941Z,5.13
2018-09-01T00:12:21.606Z,4.60
2018-09-01T00:14:50.320Z,5.00
2018-09-01T00:17:24.415Z,5.70
2018-09-01T00:19:53.035Z,5.70
2018-09-01T00:22:21.684Z,5.43
2018-09-01T00:24:51.766Z,6.60
2018-09-01T00:27:20.958Z,6.00
2018-09-01T00:29:50.175Z,5.47
2018-09-01T00:32:19.163Z,5.37
2018-09-01T00:34:47.935Z,4.80
2018-09-01T00:37:22.243Z,4.93
2018-09-01T00:39:50.959Z,4.37
2018-09-01T00:42:19.801Z,4.70
2018-09-01T00:44:48.431Z,4.73
2018-09-01T00:47:17.157Z,4.77
2018-09-01T00:49:45.813Z,5.10
2018-09-01T00:52:14.474Z,5.50
2018-09-01T00:54:43.188Z,5.50
2018-09-01T00:57:11.848Z,5.40
2018-09-01T00:59:40.513Z,5.30
2018-09-01T01:02:09.176Z,6.00
2018-09-01T01:04:37.835Z,5.47
2018-09-01T01:07:06.513Z,5.80
2018-09-01T01:09:35.181Z,5.60
2018-09-01T01:12:03.841Z,6.00
2018-09-01T01:14:32.507Z,6.40
2018-09-01T01:17:01.199Z,6.50
2018-09-01T01:19:29.847Z,6.13
2018-09-01T01:21:58.511Z,6.17
2018-09-01T01:24:27.193Z,6.47
2018-09-01T01:26:56.315Z,6.60
2018-09-01T01:29:26.143Z,6.00
2018-09-01T01:31:54.847Z,6.67
2018-09-01T01:34:23.796Z,6.90
2018-09-01T01:36:52.463Z,7.07
2018-09-01T01:39:21.107Z,7.63
2018-09-01T01:41:49.780Z,6.50
2018-09-01T01:44:18.448Z,6.20
2018-09-01T01:46:47.107Z,6.13
2018-09-01T01:49:15.776Z,6.30
2018-09-01T01:51:44.438Z,6.63
2018-09-01T01:54:13.116Z,6.57
2018-09-01T01:56:41.764Z,6.70
2018-09-01T01:59:10.621Z,6.40
2018-09-01T02:01:39.317Z,6.50
2018-09-01T02:04:07.972Z,6.23
2018-09-01T02:06:36.657Z,7.03
2018-09-01T02:09:06.418Z,5.47
2018-09-01T02:11:35.096Z,5.73
2018-09-01T02:14:03.768Z,5.70
2018-09-01T02:16:32.436Z,5.90
2018-09-01T02:19:01.121Z,5.53
2018-09-01T02:21:29.804Z,5.83
2018-09-01T02:23:58.476Z,5.50
2018-09-01T02:26:27.149Z,6.20
2018-09-01T02:28:55.835Z,5.83
2018-09-01T02:31:24.489Z,5.50
2018-09-01T02:33:53.137Z,5.57
2018-09-01T02:36:21.802Z,5.07
2018-09-01T02:38:50.450Z,5.40
2018-09-01T02:41:19.140Z,5.03
2018-09-01T02:43:47.812Z,4.60
2018-09-01T02:46:16.486Z,4.83
2018-09-01T02:48:45.137Z,5.53
2018-09-01T02:51:13.804Z,5.33
2018-09-01T02:53:42.482Z,5.67
2018-09-01T02:56:11.137Z,5.43
2018-09-01T02:58:39.792Z,4.90
2018-09-01T03:01:14.048Z,5.60
2018-09-01T03:03:42.724Z,4.80
2018-09-01T03:06:11.385Z,4.73
2018-09-01T03:08:40.061Z,4.80
2018-09-01T03:11:08.704Z,5.17
2018-09-01T03:13:37.377Z,5.00
2018-09-01T03:16:06.029Z,5.47
2018-09-01T03:18:34.679Z,5.20
2018-09-01T03:21:03.332Z,5.23
2018-09-01T03:23:32.007Z,5.30
2018-09-01T03:26:00.881Z,4.93
2018-09-01T03:28:29.705Z,4.70
2018-09-01T03:30:58.371Z,5.07
2018-09-01T03:33:27.068Z,5.37
2018-09-01T03:35:55.719Z,5.47
2018-09-01T03:38:24.407Z,5.40
2018-09-01T03:40:53.043Z,5.30
2018-09-01T03:43:21.707Z,5.43
2018-09-01T03:45:50.344Z,4.77
2018-09-01T03:48:19.090Z,4.73
2018-09-01T03:50:47.762Z,5.03
2018-09-01T03:53:16.415Z,4.83
2018-09-01T03:55:45.054Z,4.00
2018-09-01T03:58:13.724Z,4.80
2018-09-01T04:00:42.381Z,4.47
2018-09-01T04:03:11.036Z,4.50
2018-09-01T04:05:39.707Z,4.30
2018-09-01T04:08:08.364Z,4.77
2018-09-01T04:10:37.052Z,4.97
2018-09-01T04:13:05.748Z,4.20
2018-09-01T04:15:34.424Z,4.60
2018-09-01T04:18:03.103Z,4.57
2018-09-01T04:20:31.772Z,3.93
2018-09-01T04:23:00.426Z,4.23
2018-09-01T04:25:29.070Z,4.47
2018-09-01T04:27:57.768Z,4.50
2018-09-01T04:30:26.436Z,4.60
2018-09-01T04:32:55.091Z,4.07
2018-09-01T04:35:23.753Z,4.50
2018-09-01T04:37:52.747Z,4.60
2018-09-01T04:40:21.399Z,4.70
2018-09-01T04:42:50.233Z,5.23
2018-09-01T04:45:19.385Z,4.77
2018-09-01T04:47:48.042Z,4.90
2018-09-01T04:50:16.715Z,4.67
2018-09-01T04:52:45.370Z,4.53
2018-09-01T04:55:14.044Z,5.20
2018-09-01T04:57:42.707Z,4.70
2018-09-01T05:00:15.620Z,5.53
2018-09-01T05:02:44.324Z,4.57
2018-09-01T05:05:12.988Z,4.83
2018-09-01T05:07:41.634Z,4.53
2018-09-01T05:10:10.298Z,4.47
2018-09-01T05:12:38.945Z,4.93
2018-09-01T05:15:07.612Z,5.10
2018-09-01T05:17:36.288Z,4.50
2018-09-01T05:20:05.199Z,4.87
2018-09-01T05:22:33.871Z,5.43
2018-09-01T05:25:02.568Z,5.10
2018-09-01T05:27:31.728Z,4.30
2018-09-01T05:30:00.459Z,4.77
2018-09-01T05:32:29.260Z,4.57
2018-09-01T05:34:57.980Z,4.50
2018-09-01T05:37:26.676Z,4.40
2018-09-01T05:39:55.345Z,5.00
2018-09-01T05:42:23.992Z,4.73
2018-09-01T05:44:52.661Z,4.90
2018-09-01T05:47:21.312Z,5.07
2018-09-01T05:49:49.980Z,5.17
2018-09-01T05:52:18.640Z,4.73
2018-09-01T05:54:47.304Z,4.90
2018-09-01T05:57:15.950Z,4.60
2018-09-01T05:59:44.625Z,5.00
2018-09-01T06:02:13.382Z,5.20
2018-09-01T06:04:42.057Z,4.67
2018-09-01T06:07:10.733Z,5.03
2018-09-01T06:09:39.411Z,4.23
2018-09-01T06:12:08.076Z,4.90
2018-09-01T06:14:36.850Z,5.10
2018-09-01T06:17:06.069Z,4.90
2018-09-01T06:19:34.728Z,4.90
2018-09-01T06:22:03.400Z,4.77
2018-09-01T06:24:32.059Z,4.70
2018-09-01T06:27:03.351Z,5.73
2018-09-01T06:29:31.988Z,4.40
2018-09-01T06:32:03.067Z,4.50
2018-09-01T06:34:31.737Z,3.97
2018-09-01T06:37:00.602Z,4.53
2018-09-01T06:39:29.255Z,4.50
2018-09-01T06:41:57.923Z,4.77
2018-09-01T06:44:26.585Z,4.20
2018-09-01T06:46:55.327Z,4.30
2018-09-01T06:49:23.997Z,4.37
2018-09-01T06:51:52.668Z,5.40
2018-09-01T06:54:21.339Z,4.57
2018-09-01T06:56:50.052Z,4.77
2018-09-01T06:59:18.788Z,4.93
2018-09-01T07:01:47.441Z,4.27
2018-09-01T07:04:16.143Z,4.03
2018-09-01T07:06:44.900Z,4.83
2018-09-01T07:09:13.548Z,4.47
2018-09-01T07:11:42.230Z,4.33
2018-09-01T07:14:10.883Z,4.63
2018-09-01T07:16:39.564Z,3.60
2018-09-01T07:19:08.244Z,4.13
2018-09-01T07:21:36.903Z,3.23
2018-09-01T07:24:05.694Z,6.13
2018-09-01T07:26:34.343Z,4.20
2018-09-01T07:29:03.052Z,4.13
2018-09-01T07:31:32.194Z,3.90
2018-09-01T07:34:00.563Z,3.60
2018-09-01T07:36:29.238Z,3.70
2018-09-01T07:38:57.910Z,3.47
2018-09-01T07:41:26.601Z,4.20
2018-09-01T07:43:55.266Z,3.60
2018-09-01T07:46:23.936Z,3.57
2018-09-01T07:48:52.594Z,3.37
2018-09-01T07:51:21.260Z,3.40
2018-09-01T07:53:49.931Z,3.40
2018-09-01T07:56:18.698Z,3.57
2018-09-01T07:58:47.279Z,3.20
2018-09-01T08:01:16.117Z,3.57
2018-09-01T08:03:44.783Z,3.30
2018-09-01T08:06:13.495Z,3.47
2018-09-01T08:08:42.199Z,3.90
2018-09-01T08:11:10.904Z,3.87
2018-09-01T08:13:39.631Z,3.53
2018-09-01T08:16:08.237Z,3.10
2018-09-01T08:18:36.907Z,3.10
2018-09-01T08:21:05.865Z,3.20
2018-09-01T08:23:34.573Z,2.83
2018-09-01T08:26:03.349Z,3.10
2018-09-01T08:28:32.002Z,3.07
2018-09-01T08:31:00.756Z,3.20
2018-09-01T08:33:29.486Z,2.80
2018-09-01T08:35:58.179Z,3.17
2018-09-01T08:38:26.903Z,2.93
2018-09-01T08:40:55.589Z,3.33
2018-09-01T08:43:24.375Z,2.90
2018-09-01T08:45:53.045Z,2.93
2018-09-01T08:48:21.814Z,2.63
2018-09-01T08:50:50.441Z,2.30
2018-09-01T08:53:19.134Z,2.53
2018-09-01T08:55:47.945Z,2.57
2018-09-01T08:58:16.641Z,2.70
2018-09-01T09:00:45.313Z,2.60
2018-09-01T09:03:14.015Z,2.70
2018-09-01T09:05:42.865Z,2.23
2018-09-01T09:08:11.410Z,3.03
2018-09-01T09:10:40.042Z,3.00
2018-09-01T09:13:08.776Z,2.97
2018-09-01T09:15:37.435Z,2.60
2018-09-01T09:18:06.139Z,3.60
2018-09-01T09:20:34.854Z,3.23
2018-09-01T09:23:03.578Z,2.73
2018-09-01T09:25:32.257Z,4.77
2018-09-01T09:28:00.986Z,3.10
2018-09-01T09:30:29.643Z,2.90
2018-09-01T09:32:58.444Z,2.70
2018-09-01T09:35:27.126Z,3.20
2018-09-01T09:37:55.827Z,3.03
2018-09-01T09:40:24.519Z,3.30
2018-09-01T09:42:53.297Z,2.90
2018-09-01T09:45:22.380Z,3.27
2018-09-01T09:47:51.076Z,3.00
2018-09-01T09:50:19.764Z,2.80
2018-09-01T09:52:48.453Z,2.57
2018-09-01T09:55:17.185Z,3.03
2018-09-01T09:57:45.864Z,2.97
2018-09-01T10:00:14.514Z,3.07
2018-09-01T10:02:43.200Z,2.97
2018-09-01T10:05:11.853Z,2.93
2018-09-01T10:07:40.541Z,3.20
2018-09-01T10:10:09.213Z,3.07
2018-09-01T10:12:37.913Z,3.20
2018-09-01T10:15:06.663Z,2.97
2018-09-01T10:17:35.369Z,3.30
2018-09-01T10:20:04.115Z,2.60
2018-09-01T10:22:32.757Z,2.90
2018-09-01T10:25:01.484Z,3.83
2018-09-01T10:27:30.139Z,2.97
2018-09-01T10:29:58.925Z,4.57
2018-09-01T10:32:27.669Z,3.33
2018-09-01T10:34:56.432Z,3.47
2018-09-01T10:37:25.113Z,3.07
2018-09-01T10:39:53.857Z,3.23
2018-09-01T10:42:22.531Z,3.20
2018-09-01T10:44:51.219Z,3.23
2018-09-01T10:47:19.914Z,3.57
2018-09-01T10:49:48.581Z,2.80
2018-09-01T10:52:17.415Z,3.00
2018-09-01T10:54:46.090Z,3.40
2018-09-01T10:57:14.887Z,3.37
2018-09-01T10:59:43.623Z,3.20
2018-09-01T11:02:12.305Z,3.40
2018-09-01T11:04:40.967Z,4.10
2018-09-01T11:07:09.645Z,3.50
2018-09-01T11:09:38.415Z,3.30
2018-09-01T11:12:07.066Z,4.22
2018-09-01T11:14:35.792Z,5.22
2018-09-01T11:17:04.603Z,3.75
2018-09-01T11:19:33.453Z,3.92
2018-09-01T11:22:02.196Z,3.70
2018-09-01T11:24:30.872Z,3.97
2018-09-01T11:26:59.521Z,6.27
2018-09-01T11:29:28.236Z,4.37
2018-09-01T11:31:56.911Z,4.77
2018-09-01T11:34:25.633Z,4.27
2018-09-01T11:36:54.363Z,3.77
2018-09-01T11:39:23.039Z,3.77
2018-09-01T11:41:51.682Z,3.90
2018-09-01T11:44:20.416Z,3.77
2018-09-01T11:46:49.112Z,3.20
2018-09-01T11:49:17.771Z,3.87
2018-09-01T11:51:46.424Z,3.00
2018-09-01T11:54:15.103Z,3.60
2018-09-01T11:56:43.766Z,3.30
2018-09-01T11:59:12.690Z,3.60
2018-09-01T12:01:41.604Z,3.93
2018-09-01T12:04:10.448Z,3.20
2018-09-01T12:06:39.161Z,3.50
2018-09-01T12:09:08.278Z,3.10
2018-09-01T12:11:36.913Z,3.50
2018-09-01T12:14:05.621Z,2.97
2018-09-01T12:16:34.278Z,3.17
2018-09-01T12:19:03.028Z,4.07
2018-09-01T12:21:31.703Z,3.47
2018-09-01T12:24:00.399Z,3.40
2018-09-01T12:26:29.055Z,3.33
2018-09-01T12:28:57.803Z,3.03
2018-09-01T12:31:26.489Z,3.30
2018-09-01T12:33:55.196Z,16.10
2018-09-01T12:36:24.064Z,5.80
2018-09-01T12:38:52.859Z,3.20
2018-09-01T12:41:21.645Z,3.37
2018-09-01T12:43:50.303Z,3.60
2018-09-01T12:46:18.951Z,5.53
2018-09-01T12:48:47.613Z,3.37
2018-09-01T12:51:16.269Z,3.20
2018-09-01T12:53:44.984Z,3.40
2018-09-01T12:56:13.644Z,3.20
2018-09-01T12:58:42.339Z,3.37
2018-09-01T13:01:11.022Z,3.80
2018-09-01T13:03:39.903Z,3.83
2018-09-01T13:06:09.413Z,2.80
2018-09-01T13:08:38.077Z,3.30
2018-09-01T13:11:06.890Z,3.23
2018-09-01T13:13:35.584Z,3.20
2018-09-01T13:16:04.256Z,3.37
2018-09-01T13:18:33.044Z,3.27
2018-09-01T13:21:01.773Z,3.37
2018-09-01T13:23:30.542Z,3.47
2018-09-01T13:25:59.184Z,3.70
2018-09-01T13:28:27.852Z,3.40
2018-09-01T13:30:56.528Z,4.67
2018-09-01T13:33:25.209Z,3.50
2018-09-01T13:35:53.870Z,3.00
2018-09-01T13:38:22.626Z,3.73
2018-09-01T13:40:51.325Z,3.40
2018-09-01T13:43:20.030Z,3.50
2018-09-01T13:45:49.109Z,4.07
2018-09-01T13:48:17.844Z,3.40
2018-09-01T13:50:46.526Z,3.67
2018-09-01T13:53:15.211Z,3.73
2018-09-01T13:55:43.904Z,3.47
2018-09-01T13:58:12.580Z,6.07
2018-09-01T14:00:41.360Z,4.58
2018-09-01T14:03:10.026Z,3.77
2018-09-01T14:05:38.756Z,3.40
2018-09-01T14:08:07.486Z,3.17
2018-09-01T14:10:36.152Z,3.20
2018-09-01T14:13:05.626Z,3.10
2018-09-01T14:15:34.505Z,3.30
2018-09-01T14:18:03.177Z,3.50
2018-09-01T14:20:31.912Z,4.40
2018-09-01T14:23:00.581Z,3.20
2018-09-01T14:25:29.248Z,3.77
2018-09-01T14:27:57.943Z,3.47
2018-09-01T14:30:26.637Z,3.20
2018-09-01T14:32:55.370Z,3.20
2018-09-01T14:35:24.059Z,3.53
2018-09-01T14:37:52.745Z,3.13
2018-09-01T14:40:21.425Z,3.27
2018-09-01T14:42:50.129Z,3.10
2018-09-01T14:45:18.814Z,3.17
2018-09-01T14:47:47.517Z,3.40
2018-09-01T14:50:16.167Z,3.30
2018-09-01T14:52:44.855Z,2.83
2018-09-01T14:55:13.537Z,2.97
2018-09-01T14:57:42.188Z,3.00
2018-09-01T15:00:10.859Z,3.07
2018-09-01T15:02:39.542Z,2.90
2018-09-01T15:05:08.202Z,3.10
2018-09-01T15:07:36.864Z,3.17
2018-09-01T15:10:05.594Z,2.77
2018-09-01T15:12:34.297Z,3.17
2018-09-01T15:15:02.957Z,3.07
2018-09-01T15:17:31.602Z,3.50
2018-09-01T15:20:00.305Z,3.70
2018-09-01T15:22:28.982Z,3.30
2018-09-01T15:24:57.655Z,3.00
2018-09-01T15:27:26.413Z,2.70
2018-09-01T15:29:55.148Z,2.90
2018-09-01T15:32:23.860Z,3.03
2018-09-01T15:34:52.470Z,3.07
2018-09-01T15:37:21.127Z,2.87
2018-09-01T15:39:50.006Z,3.23
2018-09-01T15:42:18.668Z,3.13
2018-09-01T15:44:47.384Z,3.47
2018-09-01T15:47:16.080Z,3.10
2018-09-01T15:49:45.022Z,3.30
2018-09-01T15:52:13.700Z,3.37
2018-09-01T15:54:42.400Z,2.90
2018-09-01T15:57:11.056Z,2.57
2018-09-01T15:59:39.711Z,3.00
2018-09-01T16:02:08.493Z,3.20
2018-09-01T16:04:37.147Z,5.53
2018-09-01T16:07:05.848Z,4.80
2018-09-01T16:09:34.573Z,3.37
2018-09-01T16:12:03.243Z,2.97
2018-09-01T16:14:31.992Z,2.90
2018-09-01T16:17:00.669Z,3.13
2018-09-01T16:19:29.458Z,5.20
2018-09-01T16:21:58.141Z,3.37
2018-09-01T16:24:26.864Z,3.20
2018-09-01T16:26:55.508Z,2.87
2018-09-01T16:29:24.154Z,2.63
2018-09-01T16:31:52.894Z,2.90
2018-09-01T16:34:21.767Z,3.00
2018-09-01T16:36:50.575Z,2.73
2018-09-01T16:39:19.217Z,7.57
2018-09-01T16:41:47.943Z,3.73
2018-09-01T16:44:16.600Z,2.93
2018-09-01T16:46:45.365Z,3.13
2018-09-01T16:49:14.051Z,3.63
2018-09-01T16:51:42.707Z,2.97
2018-09-01T16:54:11.357Z,3.10
2018-09-01T16:56:40.065Z,3.00
2018-09-01T16:59:08.751Z,3.10
2018-09-01T17:01:37.394Z,3.40
2018-09-01T17:04:06.270Z,2.87
2018-09-01T17:06:35.086Z,2.87
2018-09-01T17:09:04.120Z,3.10
2018-09-01T17:11:32.890Z,2.63
2018-09-01T17:14:01.544Z,2.93
2018-09-01T17:16:30.196Z,2.67
2018-09-01T17:18:58.948Z,1.97
2018-09-01T17:21:27.596Z,2.67
2018-09-01T17:23:56.338Z,2.40
2018-09-01T17:26:25.064Z,2.57
2018-09-01T17:28:53.724Z,2.60
2018-09-01T17:31:22.432Z,2.77
2018-09-01T17:33:51.238Z,2.50
2018-09-01T17:39:14.162Z,3.10
2018-09-01T17:41:43.268Z,5.37
2018-09-01T17:44:11.952Z,3.30
2018-09-01T17:46:40.708Z,3.17
2018-09-01T17:49:09.379Z,2.67
2018-09-01T17:51:38.124Z,2.60
2018-09-01T17:54:06.952Z,2.63
2018-09-01T17:56:35.707Z,2.67
2018-09-01T17:59:04.348Z,2.40
2018-09-01T18:01:33.414Z,2.80
2018-09-01T18:04:02.091Z,2.03
2018-09-01T18:06:30.753Z,2.33
2018-09-01T18:08:59.414Z,2.50
2018-09-01T18:11:28.064Z,2.37
2018-09-01T18:13:56.736Z,2.60
2018-09-01T18:16:25.401Z,2.57
2018-09-01T18:18:54.057Z,2.07
2018-09-01T18:21:22.757Z,1.97
2018-09-01T18:23:51.535Z,1.90
2018-09-01T18:26:20.200Z,2.17
2018-09-01T18:28:48.865Z,2.27
2018-09-01T18:31:17.541Z,2.30
2018-09-01T18:33:46.208Z,2.00
2018-09-01T18:36:14.965Z,1.97
2018-09-01T18:38:43.600Z,2.30
2018-09-01T18:41:12.336Z,2.80
2018-09-01T18:43:40.945Z,2.63
2018-09-01T18:46:09.824Z,2.23
2018-09-01T18:48:38.525Z,2.43
2018-09-01T18:51:07.179Z,2.70
2018-09-01T18:53:35.827Z,2.60
2018-09-01T18:56:04.496Z,2.70
2018-09-01T18:58:33.197Z,4.70
2018-09-01T19:01:01.859Z,4.40
2018-09-01T19:03:30.850Z,3.60
2018-09-01T19:05:59.526Z,3.50
2018-09-01T19:08:28.173Z,3.40
2018-09-01T19:10:56.872Z,2.87
2018-09-01T19:13:25.521Z,2.60
2018-09-01T19:15:54.163Z,3.00
2018-09-01T19:18:22.840Z,2.70
2018-09-01T19:20:51.484Z,2.50
2018-09-01T19:23:20.142Z,3.37
2018-09-01T19:25:48.960Z,2.43
2018-09-01T19:28:17.640Z,2.40
2018-09-01T19:30:46.288Z,2.30
2018-09-01T19:33:14.940Z,2.30
2018-09-01T19:35:43.611Z,3.10
2018-09-01T19:38:12.330Z,2.77
2018-09-01T19:40:41.121Z,2.57
2018-09-01T19:43:09.760Z,2.63
2018-09-01T19:45:38.556Z,3.10
2018-09-01T19:48:07.126Z,2.83
2018-09-01T19:50:35.776Z,2.57
2018-09-01T19:53:04.614Z,2.40
2018-09-01T19:55:33.280Z,2.20
2018-09-01T19:58:01.988Z,2.73
2018-09-01T20:00:30.684Z,2.90
2018-09-01T20:02:59.564Z,2.57
2018-09-01T20:05:28.299Z,2.63
2018-09-01T20:07:56.930Z,2.20
2018-09-01T20:10:25.609Z,2.63
2018-09-01T20:12:54.657Z,2.77
2018-09-01T20:15:23.364Z,4.00
2018-09-01T20:17:52.205Z,3.10
2018-09-01T20:20:20.916Z,3.20
2018-09-01T20:22:49.597Z,3.13
2018-09-01T20:25:18.331Z,3.23
2018-09-01T20:27:46.984Z,2.23
2018-09-01T20:30:16.537Z,2.63
2018-09-01T20:32:45.196Z,2.73
2018-09-01T20:35:19.339Z,3.30
2018-09-01T20:37:48.038Z,4.07
2018-09-01T20:40:17.667Z,3.73
2018-09-01T20:42:46.347Z,3.17
2018-09-01T20:45:15.007Z,3.10
2018-09-01T20:47:43.655Z,3.20
2018-09-01T20:50:12.380Z,3.17
2018-09-01T20:52:41.075Z,3.97
2018-09-01T20:55:09.779Z,6.27
2018-09-01T20:57:38.493Z,5.83
2018-09-01T21:00:07.384Z,4.37
2018-09-01T21:02:36.099Z,4.30
2018-09-01T21:05:04.840Z,5.77
2018-09-01T21:07:33.496Z,3.83
2018-09-01T21:10:02.790Z,3.83
2018-09-01T21:12:31.436Z,3.10
2018-09-01T21:15:00.088Z,3.33
2018-09-01T21:17:28.803Z,3.87
2018-09-01T21:19:57.448Z,2.80
2018-09-01T21:22:26.160Z,3.90
2018-09-01T21:24:55.174Z,3.37
2018-09-01T21:27:23.848Z,3.17
2018-09-01T21:29:52.642Z,3.10
2018-09-01T21:32:21.318Z,4.00
2018-09-01T21:34:49.984Z,10.03
2018-09-01T21:37:18.608Z,4.77
2018-09-01T21:39:47.561Z,3.10
2018-09-01T21:42:16.129Z,3.40
2018-09-01T21:44:44.804Z,3.43
2018-09-01T21:47:13.962Z,3.70
2018-09-01T21:49:42.665Z,3.43
2018-09-01T21:52:11.265Z,3.83
2018-09-01T21:54:39.944Z,4.33
2018-09-01T21:57:08.675Z,3.60
2018-09-01T21:59:37.263Z,4.37
2018-09-01T22:02:11.760Z,4.30
2018-09-01T22:04:45.769Z,4.00
2018-09-01T22:07:14.546Z,3.80
2018-09-01T22:09:43.221Z,3.63
2018-09-01T22:12:11.875Z,3.37
2018-09-01T22:14:40.526Z,3.47
2018-09-01T22:17:09.175Z,3.53
2018-09-01T22:19:37.837Z,3.30
2018-09-01T22:22:06.647Z,3.87
2018-09-01T22:24:35.307Z,3.80
2018-09-01T22:27:04.117Z,3.87
2018-09-01T22:29:32.755Z,4.27
2018-09-01T22:32:01.497Z,3.93
2018-09-01T22:34:30.135Z,3.90
2018-09-01T22:36:58.779Z,3.93
2018-09-01T22:39:27.435Z,3.40
2018-09-01T22:41:56.083Z,3.73
2018-09-01T22:44:24.897Z,3.63
2018-09-01T22:46:54.275Z,4.70
2018-09-01T22:49:22.939Z,3.23
2018-09-01T22:51:51.594Z,3.63
2018-09-01T22:54:20.266Z,4.40
2018-09-01T22:56:48.937Z,3.80
2018-09-01T22:59:17.591Z,3.40
2018-09-01T23:01:46.248Z,3.83
2018-09-01T23:04:14.895Z,3.57
2018-09-01T23:06:43.591Z,4.50
2018-09-01T23:09:12.208Z,3.40
2018-09-01T23:11:41.092Z,3.57
2018-09-01T23:14:09.751Z,4.30
2018-09-01T23:16:38.425Z,4.00
2018-09-01T23:19:07.124Z,6.23
2018-09-01T23:21:35.784Z,5.03
2018-09-01T23:24:04.420Z,4.20
2018-09-01T23:26:33.074Z,4.43
2018-09-01T23:29:01.752Z,4.50
2018-09-01T23:31:30.414Z,4.43
2018-09-01T23:33:59.040Z,3.67
2018-09-01T23:36:27.692Z,4.17
2018-09-01T23:38:56.338Z,3.37
2018-09-01T23:41:24.984Z,3.50
2018-09-01T23:43:53.664Z,3.87
2018-09-01T23:46:22.346Z,3.50
2018-09-01T23:48:50.978Z,3.00
2018-09-01T23:51:19.642Z,3.63
2018-09-01T23:53:48.306Z,3.17
2018-09-01T23:56:16.988Z,3.57
2018-09-01T23:58:45.628Z,3.00
